sensor_id;sensor_type;location;lat;lon;timestamp;P1;durP1;ratioP1;P2;durP2;ratioP2
55647;SDS011;45266;48.756;9.246;2022-12-07T00:00:28;9.80;;;6.80;;
55647;SDS011;45266;48.756;9.246;2022-12-07T00:01:31;10.47;;;6.60;;
55647;SDS011;45266;48.756;9.246;2022-12-07T00:02:35;8.70;;;6.50;;
55647;SDS011;45266;48.756;9.246;2022-12-07T00:03:37;9.97;;;6.53;;
55647;SDS011;45266;48.756;9.246;2022-12-07T00:04:40;8.67;;;6.60;;
55647;SDS011;45266;48.756;9.246;2022-12-07T00:05:42;8.30;;;6.50;;
55647;SDS011;45266;48.756;9.246;2022-12-07T00:06:44;9.17;;;6.33;;
55647;SDS011;45266;48.756;9.246;2022-12-07T00:07:48;8.50;;;6.30;;
55647;SDS011;45266;48.756;9.246;2022-12-07T00:08:50;9.47;;;6.53;;
55647;SDS011;45266;48.756;9.246;2022-12-07T00:09:52;8.07;;;6.20;;
55647;SDS011;45266;48.756;9.246;2022-12-07T00:10:54;8.67;;;7.03;;
55647;SDS011;45266;48.756;9.246;2022-12-07T00:11:56;8.03;;;6.43;;
55647;SDS011;45266;48.756;9.246;2022-12-07T00:12:57;10.17;;;6.80;;
55647;SDS011;45266;48.756;9.246;2022-12-07T00:14:02;8.47;;;6.70;;
55647;SDS011;45266;48.756;9.246;2022-12-07T00:15:06;8.10;;;6.53;;
55647;SDS011;45266;48.756;9.246;2022-12-07T00:16:09;9.67;;;6.43;;
55647;SDS011;45266;48.756;9.246;2022-12-07T00:17:16;7.57;;;6.40;;
55647;SDS011;45266;48.756;9.246;2022-12-07T00:18:18;8.47;;;6.63;;
55647;SDS011;45266;48.756;9.246;2022-12-07T00:19:20;10.57;;;6.80;;
55647;SDS011;45266;48.756;9.246;2022-12-07T00:20:21;10.33;;;6.57;;
55647;SDS011;45266;48.756;9.246;2022-12-07T00:21:27;8.30;;;6.17;;
55647;SDS011;45266;48.756;9.246;2022-12-07T00:22:30;9.43;;;6.60;;
55647;SDS011;45266;48.756;9.246;2022-12-07T00:23:32;7.47;;;6.00;;
55647;SDS011;45266;48.756;9.246;2022-12-07T00:24:34;9.23;;;6.73;;
55647;SDS011;45266;48.756;9.246;2022-12-07T00:25:36;8.30;;;6.30;;
55647;SDS011;45266;48.756;9.246;2022-12-07T00:26:38;9.80;;;6.40;;
55647;SDS011;45266;48.756;9.246;2022-12-07T00:27:41;9.00;;;6.53;;
55647;SDS011;45266;48.756;9.246;2022-12-07T00:28:50;8.33;;;6.40;;
55647;SDS011;45266;48.756;9.246;2022-12-07T00:29:53;8.10;;;6.50;;
55647;SDS011;45266;48.756;9.246;2022-12-07T00:31:02;7.93;;;5.90;;
55647;SDS011;45266;48.756;9.246;2022-12-07T00:32:03;8.60;;;6.40;;
55647;SDS011;45266;48.756;9.246;2022-12-07T00:33:05;8.67;;;6.17;;
55647;SDS011;45266;48.756;9.246;2022-12-07T00:34:07;6.70;;;5.67;;
55647;SDS011;45266;48.756;9.246;2022-12-07T00:35:14;7.80;;;6.23;;
55647;SDS011;45266;48.756;9.246;2022-12-07T00:36:17;8.23;;;6.30;;
55647;SDS011;45266;48.756;9.246;2022-12-07T00:37:26;8.93;;;6.70;;
55647;SDS011;45266;48.756;9.246;2022-12-07T00:38:29;9.10;;;7.30;;
55647;SDS011;45266;48.756;9.246;2022-12-07T00:39:32;10.30;;;7.83;;
55647;SDS011;45266;48.756;9.246;2022-12-07T00:40:34;9.57;;;7.00;;
55647;SDS011;45266;48.756;9.246;2022-12-07T00:41:36;10.37;;;7.57;;
55647;SDS011;45266;48.756;9.246;2022-12-07T00:42:37;9.73;;;7.73;;
55647;SDS011;45266;48.756;9.246;2022-12-07T00:43:40;11.43;;;7.10;;
55647;SDS011;45266;48.756;9.246;2022-12-07T00:44:42;10.53;;;7.90;;
55647;SDS011;45266;48.756;9.246;2022-12-07T00:45:44;12.93;;;7.87;;
55647;SDS011;45266;48.756;9.246;2022-12-07T00:46:46;11.90;;;7.63;;
55647;SDS011;45266;48.756;9.246;2022-12-07T00:47:47;9.60;;;7.20;;
55647;SDS011;45266;48.756;9.246;2022-12-07T00:48:49;10.23;;;7.93;;
55647;SDS011;45266;48.756;9.246;2022-12-07T00:49:52;9.87;;;7.80;;
55647;SDS011;45266;48.756;9.246;2022-12-07T00:50:54;9.87;;;7.27;;
55647;SDS011;45266;48.756;9.246;2022-12-07T00:51:56;7.83;;;6.50;;
55647;SDS011;45266;48.756;9.246;2022-12-07T00:52:57;9.53;;;7.13;;
55647;SDS011;45266;48.756;9.246;2022-12-07T00:53:59;9.17;;;7.20;;
55647;SDS011;45266;48.756;9.246;2022-12-07T00:55:01;10.20;;;7.20;;
55647;SDS011;45266;48.756;9.246;2022-12-07T00:56:06;8.40;;;6.77;;
55647;SDS011;45266;48.756;9.246;2022-12-07T00:57:13;9.57;;;7.13;;
55647;SDS011;45266;48.756;9.246;2022-12-07T00:58:14;8.67;;;7.03;;
55647;SDS011;45266;48.756;9.246;2022-12-07T00:59:16;9.50;;;7.20;;
55647;SDS011;45266;48.756;9.246;2022-12-07T01:00:18;10.93;;;7.50;;
55647;SDS011;45266;48.756;9.246;2022-12-07T01:01:20;9.27;;;7.70;;
55647;SDS011;45266;48.756;9.246;2022-12-07T01:02:22;9.20;;;6.97;;
55647;SDS011;45266;48.756;9.246;2022-12-07T01:03:24;9.10;;;7.43;;
55647;SDS011;45266;48.756;9.246;2022-12-07T01:04:26;9.40;;;7.40;;
55647;SDS011;45266;48.756;9.246;2022-12-07T01:05:27;9.63;;;7.20;;
55647;SDS011;45266;48.756;9.246;2022-12-07T01:06:29;9.40;;;6.77;;
55647;SDS011;45266;48.756;9.246;2022-12-07T01:07:31;9.50;;;7.37;;
55647;SDS011;45266;48.756;9.246;2022-12-07T01:08:33;9.37;;;6.80;;
55647;SDS011;45266;48.756;9.246;2022-12-07T01:09:35;9.43;;;7.00;;
55647;SDS011;45266;48.756;9.246;2022-12-07T01:10:36;9.20;;;6.97;;
55647;SDS011;45266;48.756;9.246;2022-12-07T01:11:38;8.50;;;6.87;;
55647;SDS011;45266;48.756;9.246;2022-12-07T01:12:40;10.40;;;7.97;;
55647;SDS011;45266;48.756;9.246;2022-12-07T01:13:42;9.00;;;6.77;;
55647;SDS011;45266;48.756;9.246;2022-12-07T01:14:44;8.77;;;7.07;;
55647;SDS011;45266;48.756;9.246;2022-12-07T01:15:46;8.90;;;7.27;;
55647;SDS011;45266;48.756;9.246;2022-12-07T01:16:48;9.40;;;7.07;;
55647;SDS011;45266;48.756;9.246;2022-12-07T01:17:50;9.17;;;7.10;;
55647;SDS011;45266;48.756;9.246;2022-12-07T01:18:53;9.37;;;7.37;;
55647;SDS011;45266;48.756;9.246;2022-12-07T01:19:55;11.77;;;7.77;;
55647;SDS011;45266;48.756;9.246;2022-12-07T01:21:01;10.93;;;7.70;;
55647;SDS011;45266;48.756;9.246;2022-12-07T01:22:07;10.53;;;7.23;;
55647;SDS011;45266;48.756;9.246;2022-12-07T01:23:08;11.53;;;7.20;;
55647;SDS011;45266;48.756;9.246;2022-12-07T01:24:11;10.40;;;7.40;;
55647;SDS011;45266;48.756;9.246;2022-12-07T01:25:12;11.00;;;7.83;;
55647;SDS011;45266;48.756;9.246;2022-12-07T01:26:15;10.97;;;7.40;;
55647;SDS011;45266;48.756;9.246;2022-12-07T01:27:19;10.13;;;7.60;;
55647;SDS011;45266;48.756;9.246;2022-12-07T01:28:21;12.67;;;8.00;;
55647;SDS011;45266;48.756;9.246;2022-12-07T01:29:22;9.37;;;7.77;;
55647;SDS011;45266;48.756;9.246;2022-12-07T01:30:24;11.37;;;8.37;;
55647;SDS011;45266;48.756;9.246;2022-12-07T01:31:26;10.40;;;8.00;;
55647;SDS011;45266;48.756;9.246;2022-12-07T01:32:29;10.50;;;8.10;;
55647;SDS011;45266;48.756;9.246;2022-12-07T01:33:33;11.00;;;8.17;;
55647;SDS011;45266;48.756;9.246;2022-12-07T01:34:36;11.77;;;8.43;;
55647;SDS011;45266;48.756;9.246;2022-12-07T01:35:37;11.17;;;7.77;;
55647;SDS011;45266;48.756;9.246;2022-12-07T01:36:39;10.67;;;7.87;;
55647;SDS011;45266;48.756;9.246;2022-12-07T01:37:41;9.83;;;7.57;;
55647;SDS011;45266;48.756;9.246;2022-12-07T01:38:43;11.53;;;7.97;;
55647;SDS011;45266;48.756;9.246;2022-12-07T01:39:48;10.90;;;8.20;;
55647;SDS011;45266;48.756;9.246;2022-12-07T01:40:54;11.00;;;8.00;;
55647;SDS011;45266;48.756;9.246;2022-12-07T01:41:57;13.13;;;8.20;;
55647;SDS011;45266;48.756;9.246;2022-12-07T01:42:58;10.57;;;7.80;;
55647;SDS011;45266;48.756;9.246;2022-12-07T01:44:07;10.47;;;7.93;;
55647;SDS011;45266;48.756;9.246;2022-12-07T01:46:43;11.57;;;8.37;;
55647;SDS011;45266;48.756;9.246;2022-12-07T01:47:51;11.23;;;7.97;;
55647;SDS011;45266;48.756;9.246;2022-12-07T01:48:56;11.03;;;8.20;;
55647;SDS011;45266;48.756;9.246;2022-12-07T01:49:58;10.83;;;8.00;;
55647;SDS011;45266;48.756;9.246;2022-12-07T01:51:02;9.90;;;7.70;;
55647;SDS011;45266;48.756;9.246;2022-12-07T01:52:10;12.00;;;8.20;;
55647;SDS011;45266;48.756;9.246;2022-12-07T01:53:18;11.37;;;7.27;;
55647;SDS011;45266;48.756;9.246;2022-12-07T01:54:22;12.17;;;7.77;;
55647;SDS011;45266;48.756;9.246;2022-12-07T01:55:24;10.37;;;7.57;;
55647;SDS011;45266;48.756;9.246;2022-12-07T01:56:27;12.13;;;7.97;;
55647;SDS011;45266;48.756;9.246;2022-12-07T01:57:31;10.67;;;7.87;;
55647;SDS011;45266;48.756;9.246;2022-12-07T01:58:35;11.53;;;8.03;;
55647;SDS011;45266;48.756;9.246;2022-12-07T01:59:38;11.90;;;7.97;;
55647;SDS011;45266;48.756;9.246;2022-12-07T02:00:41;12.13;;;8.13;;
55647;SDS011;45266;48.756;9.246;2022-12-07T02:01:43;9.80;;;7.30;;
55647;SDS011;45266;48.756;9.246;2022-12-07T02:03:56;10.93;;;7.77;;
55647;SDS011;45266;48.756;9.246;2022-12-07T02:05:00;11.10;;;7.47;;
55647;SDS011;45266;48.756;9.246;2022-12-07T02:06:04;11.10;;;7.93;;
55647;SDS011;45266;48.756;9.246;2022-12-07T02:07:07;10.77;;;8.00;;
55647;SDS011;45266;48.756;9.246;2022-12-07T02:08:09;13.03;;;8.40;;
55647;SDS011;45266;48.756;9.246;2022-12-07T02:09:13;10.23;;;7.10;;
55647;SDS011;45266;48.756;9.246;2022-12-07T02:10:23;11.07;;;7.60;;
55647;SDS011;45266;48.756;9.246;2022-12-07T02:11:26;10.80;;;7.50;;
55647;SDS011;45266;48.756;9.246;2022-12-07T02:12:28;9.70;;;7.10;;
55647;SDS011;45266;48.756;9.246;2022-12-07T02:13:30;11.33;;;7.70;;
55647;SDS011;45266;48.756;9.246;2022-12-07T02:14:34;11.07;;;7.27;;
55647;SDS011;45266;48.756;9.246;2022-12-07T02:17:04;10.20;;;6.93;;
55647;SDS011;45266;48.756;9.246;2022-12-07T02:19:03;9.57;;;6.67;;
55647;SDS011;45266;48.756;9.246;2022-12-07T02:20:08;9.63;;;7.27;;
55647;SDS011;45266;48.756;9.246;2022-12-07T02:21:26;9.93;;;7.10;;
55647;SDS011;45266;48.756;9.246;2022-12-07T02:25:22;11.93;;;8.53;;
55647;SDS011;45266;48.756;9.246;2022-12-07T02:28:35;9.17;;;7.33;;
55647;SDS011;45266;48.756;9.246;2022-12-07T02:30:48;10.70;;;7.20;;
55647;SDS011;45266;48.756;9.246;2022-12-07T02:33:19;11.50;;;7.47;;
55647;SDS011;45266;48.756;9.246;2022-12-07T02:34:39;11.53;;;7.23;;
55647;SDS011;45266;48.756;9.246;2022-12-07T02:35:45;10.00;;;7.33;;
55647;SDS011;45266;48.756;9.246;2022-12-07T02:36:55;10.73;;;7.70;;
55647;SDS011;45266;48.756;9.246;2022-12-07T02:39:46;12.07;;;8.13;;
55647;SDS011;45266;48.756;9.246;2022-12-07T02:40:55;10.13;;;7.20;;
55647;SDS011;45266;48.756;9.246;2022-12-07T02:42:19;10.77;;;7.60;;
55647;SDS011;45266;48.756;9.246;2022-12-07T02:43:27;14.27;;;7.87;;
55647;SDS011;45266;48.756;9.246;2022-12-07T02:44:32;11.57;;;8.07;;
55647;SDS011;45266;48.756;9.246;2022-12-07T02:45:35;9.77;;;6.83;;
55647;SDS011;45266;48.756;9.246;2022-12-07T02:46:42;10.33;;;7.33;;
55647;SDS011;45266;48.756;9.246;2022-12-07T02:47:48;9.73;;;7.10;;
55647;SDS011;45266;48.756;9.246;2022-12-07T02:48:54;12.47;;;7.90;;
55647;SDS011;45266;48.756;9.246;2022-12-07T02:49:56;10.67;;;7.77;;
55647;SDS011;45266;48.756;9.246;2022-12-07T02:50:59;10.30;;;6.93;;
55647;SDS011;45266;48.756;9.246;2022-12-07T02:52:00;10.00;;;7.20;;
55647;SDS011;45266;48.756;9.246;2022-12-07T02:53:02;11.07;;;7.93;;
55647;SDS011;45266;48.756;9.246;2022-12-07T02:54:08;10.83;;;7.90;;
55647;SDS011;45266;48.756;9.246;2022-12-07T02:55:15;10.87;;;7.63;;
55647;SDS011;45266;48.756;9.246;2022-12-07T02:56:33;10.40;;;7.20;;
55647;SDS011;45266;48.756;9.246;2022-12-07T02:57:42;10.60;;;7.17;;
55647;SDS011;45266;48.756;9.246;2022-12-07T03:00:54;10.70;;;7.23;;
55647;SDS011;45266;48.756;9.246;2022-12-07T03:05:00;12.03;;;7.17;;
55647;SDS011;45266;48.756;9.246;2022-12-07T03:06:53;8.67;;;6.77;;
55647;SDS011;45266;48.756;9.246;2022-12-07T03:08:15;13.90;;;9.13;;
55647;SDS011;45266;48.756;9.246;2022-12-07T03:09:32;9.40;;;7.00;;
55647;SDS011;45266;48.756;9.246;2022-12-07T03:11:58;9.90;;;7.00;;
55647;SDS011;45266;48.756;9.246;2022-12-07T03:14:13;9.63;;;7.07;;
55647;SDS011;45266;48.756;9.246;2022-12-07T03:15:32;11.10;;;7.43;;
55647;SDS011;45266;48.756;9.246;2022-12-07T03:16:41;10.80;;;7.87;;
55647;SDS011;45266;48.756;9.246;2022-12-07T03:17:58;11.10;;;7.73;;
55647;SDS011;45266;48.756;9.246;2022-12-07T03:19:09;11.07;;;8.07;;
55647;SDS011;45266;48.756;9.246;2022-12-07T03:20:17;9.60;;;7.10;;
55647;SDS011;45266;48.756;9.246;2022-12-07T03:21:23;9.60;;;7.00;;
55647;SDS011;45266;48.756;9.246;2022-12-07T03:22:46;10.83;;;6.77;;
55647;SDS011;45266;48.756;9.246;2022-12-07T03:23:51;12.57;;;7.73;;
55647;SDS011;45266;48.756;9.246;2022-12-07T03:24:57;11.00;;;7.07;;
55647;SDS011;45266;48.756;9.246;2022-12-07T03:26:02;10.53;;;7.67;;
55647;SDS011;45266;48.756;9.246;2022-12-07T03:27:07;10.17;;;7.40;;
55647;SDS011;45266;48.756;9.246;2022-12-07T03:28:16;12.57;;;7.60;;
55647;SDS011;45266;48.756;9.246;2022-12-07T03:29:30;11.60;;;7.57;;
55647;SDS011;45266;48.756;9.246;2022-12-07T03:31:20;11.03;;;7.30;;
55647;SDS011;45266;48.756;9.246;2022-12-07T03:32:08;11.03;;;7.23;;
55647;SDS011;45266;48.756;9.246;2022-12-07T03:33:20;9.80;;;6.70;;
55647;SDS011;45266;48.756;9.246;2022-12-07T03:34:31;10.60;;;7.07;;
55647;SDS011;45266;48.756;9.246;2022-12-07T03:35:39;9.37;;;6.83;;
55647;SDS011;45266;48.756;9.246;2022-12-07T03:36:47;11.63;;;7.57;;
55647;SDS011;45266;48.756;9.246;2022-12-07T03:41:35;9.07;;;7.20;;
55647;SDS011;45266;48.756;9.246;2022-12-07T03:42:45;10.50;;;6.93;;
55647;SDS011;45266;48.756;9.246;2022-12-07T03:43:48;9.73;;;6.77;;
55647;SDS011;45266;48.756;9.246;2022-12-07T03:44:50;9.57;;;7.30;;
55647;SDS011;45266;48.756;9.246;2022-12-07T03:47:22;9.27;;;7.07;;
55647;SDS011;45266;48.756;9.246;2022-12-07T03:50:54;9.87;;;7.20;;
55647;SDS011;45266;48.756;9.246;2022-12-07T03:53:29;10.60;;;7.03;;
55647;SDS011;45266;48.756;9.246;2022-12-07T03:54:39;11.33;;;7.57;;
55647;SDS011;45266;48.756;9.246;2022-12-07T03:55:45;9.23;;;6.70;;
55647;SDS011;45266;48.756;9.246;2022-12-07T03:56:49;10.90;;;7.03;;
55647;SDS011;45266;48.756;9.246;2022-12-07T03:57:54;10.53;;;7.47;;
55647;SDS011;45266;48.756;9.246;2022-12-07T03:58:59;10.90;;;6.90;;
55647;SDS011;45266;48.756;9.246;2022-12-07T04:00:01;11.20;;;7.57;;
55647;SDS011;45266;48.756;9.246;2022-12-07T04:01:05;10.53;;;7.07;;
55647;SDS011;45266;48.756;9.246;2022-12-07T04:02:08;9.37;;;6.70;;
55647;SDS011;45266;48.756;9.246;2022-12-07T04:03:13;9.43;;;7.00;;
55647;SDS011;45266;48.756;9.246;2022-12-07T04:04:15;9.47;;;6.33;;
55647;SDS011;45266;48.756;9.246;2022-12-07T04:05:17;11.23;;;7.47;;
55647;SDS011;45266;48.756;9.246;2022-12-07T04:06:19;10.33;;;6.67;;
55647;SDS011;45266;48.756;9.246;2022-12-07T04:07:21;10.63;;;6.93;;
55647;SDS011;45266;48.756;9.246;2022-12-07T04:08:23;11.30;;;6.90;;
55647;SDS011;45266;48.756;9.246;2022-12-07T04:09:25;9.83;;;6.70;;
55647;SDS011;45266;48.756;9.246;2022-12-07T04:10:27;10.93;;;7.03;;
55647;SDS011;45266;48.756;9.246;2022-12-07T04:11:28;10.33;;;6.67;;
55647;SDS011;45266;48.756;9.246;2022-12-07T04:12:30;11.47;;;7.57;;
55647;SDS011;45266;48.756;9.246;2022-12-07T04:13:32;11.33;;;7.50;;
55647;SDS011;45266;48.756;9.246;2022-12-07T04:14:53;8.10;;;6.73;;
55647;SDS011;45266;48.756;9.246;2022-12-07T04:15:55;11.17;;;7.47;;
55647;SDS011;45266;48.756;9.246;2022-12-07T04:16:57;10.40;;;6.57;;
55647;SDS011;45266;48.756;9.246;2022-12-07T04:18:00;8.87;;;6.17;;
55647;SDS011;45266;48.756;9.246;2022-12-07T04:19:01;9.50;;;7.03;;
55647;SDS011;45266;48.756;9.246;2022-12-07T04:20:04;10.13;;;6.33;;
55647;SDS011;45266;48.756;9.246;2022-12-07T04:21:07;10.20;;;6.80;;
55647;SDS011;45266;48.756;9.246;2022-12-07T04:22:09;11.40;;;6.80;;
55647;SDS011;45266;48.756;9.246;2022-12-07T04:23:10;10.27;;;6.90;;
55647;SDS011;45266;48.756;9.246;2022-12-07T04:24:12;10.03;;;7.10;;
55647;SDS011;45266;48.756;9.246;2022-12-07T04:25:16;11.53;;;7.07;;
55647;SDS011;45266;48.756;9.246;2022-12-07T04:26:17;11.40;;;7.43;;
55647;SDS011;45266;48.756;9.246;2022-12-07T04:27:19;9.17;;;7.07;;
55647;SDS011;45266;48.756;9.246;2022-12-07T04:28:21;10.47;;;7.10;;
55647;SDS011;45266;48.756;9.246;2022-12-07T04:29:23;13.43;;;7.30;;
55647;SDS011;45266;48.756;9.246;2022-12-07T04:30:25;9.83;;;7.03;;
55647;SDS011;45266;48.756;9.246;2022-12-07T04:31:26;11.10;;;7.47;;
55647;SDS011;45266;48.756;9.246;2022-12-07T04:32:28;13.67;;;7.63;;
55647;SDS011;45266;48.756;9.246;2022-12-07T04:33:30;12.67;;;8.37;;
55647;SDS011;45266;48.756;9.246;2022-12-07T04:34:32;15.13;;;8.97;;
55647;SDS011;45266;48.756;9.246;2022-12-07T04:35:34;10.60;;;7.20;;
55647;SDS011;45266;48.756;9.246;2022-12-07T04:36:35;9.90;;;7.20;;
55647;SDS011;45266;48.756;9.246;2022-12-07T04:37:38;9.73;;;7.10;;
55647;SDS011;45266;48.756;9.246;2022-12-07T04:38:40;10.63;;;6.50;;
55647;SDS011;45266;48.756;9.246;2022-12-07T04:39:42;10.07;;;6.97;;
55647;SDS011;45266;48.756;9.246;2022-12-07T04:40:45;9.30;;;6.30;;
55647;SDS011;45266;48.756;9.246;2022-12-07T04:41:47;8.27;;;6.63;;
55647;SDS011;45266;48.756;9.246;2022-12-07T04:42:49;9.57;;;6.70;;
55647;SDS011;45266;48.756;9.246;2022-12-07T04:43:51;10.83;;;6.87;;
55647;SDS011;45266;48.756;9.246;2022-12-07T04:44:53;11.00;;;7.43;;
55647;SDS011;45266;48.756;9.246;2022-12-07T04:45:55;10.67;;;7.33;;
55647;SDS011;45266;48.756;9.246;2022-12-07T04:46:57;12.13;;;7.47;;
55647;SDS011;45266;48.756;9.246;2022-12-07T04:47:58;11.07;;;7.47;;
55647;SDS011;45266;48.756;9.246;2022-12-07T04:49:00;11.83;;;7.37;;
55647;SDS011;45266;48.756;9.246;2022-12-07T04:50:02;11.90;;;7.83;;
55647;SDS011;45266;48.756;9.246;2022-12-07T04:51:05;11.57;;;7.23;;
55647;SDS011;45266;48.756;9.246;2022-12-07T04:52:07;10.77;;;7.27;;
55647;SDS011;45266;48.756;9.246;2022-12-07T04:53:15;11.90;;;7.47;;
55647;SDS011;45266;48.756;9.246;2022-12-07T04:54:27;10.90;;;7.53;;
55647;SDS011;45266;48.756;9.246;2022-12-07T04:55:28;13.30;;;7.40;;
55647;SDS011;45266;48.756;9.246;2022-12-07T04:56:30;12.23;;;7.80;;
55647;SDS011;45266;48.756;9.246;2022-12-07T04:57:32;11.07;;;7.60;;
55647;SDS011;45266;48.756;9.246;2022-12-07T04:58:34;8.50;;;6.63;;
55647;SDS011;45266;48.756;9.246;2022-12-07T04:59:36;10.30;;;7.50;;
55647;SDS011;45266;48.756;9.246;2022-12-07T05:00:45;12.67;;;8.40;;
55647;SDS011;45266;48.756;9.246;2022-12-07T05:01:47;12.37;;;7.53;;
55647;SDS011;45266;48.756;9.246;2022-12-07T05:02:49;10.30;;;7.50;;
55647;SDS011;45266;48.756;9.246;2022-12-07T05:03:50;12.90;;;7.70;;
55647;SDS011;45266;48.756;9.246;2022-12-07T05:04:52;10.57;;;7.77;;
55647;SDS011;45266;48.756;9.246;2022-12-07T05:05:54;11.13;;;7.70;;
55647;SDS011;45266;48.756;9.246;2022-12-07T05:06:55;13.57;;;8.63;;
55647;SDS011;45266;48.756;9.246;2022-12-07T05:07:57;11.00;;;7.77;;
55647;SDS011;45266;48.756;9.246;2022-12-07T05:08:59;11.37;;;8.03;;
55647;SDS011;45266;48.756;9.246;2022-12-07T05:10:01;13.07;;;8.57;;
55647;SDS011;45266;48.756;9.246;2022-12-07T05:11:03;12.13;;;8.10;;
55647;SDS011;45266;48.756;9.246;2022-12-07T05:12:06;11.97;;;7.37;;
55647;SDS011;45266;48.756;9.246;2022-12-07T05:13:07;9.77;;;7.37;;
55647;SDS011;45266;48.756;9.246;2022-12-07T05:14:14;13.80;;;9.03;;
55647;SDS011;45266;48.756;9.246;2022-12-07T05:15:20;12.27;;;8.47;;
55647;SDS011;45266;48.756;9.246;2022-12-07T05:16:21;11.73;;;8.50;;
55647;SDS011;45266;48.756;9.246;2022-12-07T05:17:23;14.37;;;8.10;;
55647;SDS011;45266;48.756;9.246;2022-12-07T05:18:25;12.93;;;9.07;;
55647;SDS011;45266;48.756;9.246;2022-12-07T05:19:27;9.47;;;6.83;;
55647;SDS011;45266;48.756;9.246;2022-12-07T05:20:29;12.70;;;8.07;;
55647;SDS011;45266;48.756;9.246;2022-12-07T05:21:30;12.40;;;7.57;;
55647;SDS011;45266;48.756;9.246;2022-12-07T05:22:32;10.70;;;7.47;;
55647;SDS011;45266;48.756;9.246;2022-12-07T05:23:34;10.87;;;7.87;;
55647;SDS011;45266;48.756;9.246;2022-12-07T05:24:36;12.63;;;8.27;;
55647;SDS011;45266;48.756;9.246;2022-12-07T05:25:38;12.17;;;8.83;;
55647;SDS011;45266;48.756;9.246;2022-12-07T05:26:39;11.87;;;7.30;;
55647;SDS011;45266;48.756;9.246;2022-12-07T05:27:41;12.33;;;7.87;;
55647;SDS011;45266;48.756;9.246;2022-12-07T05:28:43;10.90;;;7.53;;
55647;SDS011;45266;48.756;9.246;2022-12-07T05:29:45;10.23;;;7.23;;
55647;SDS011;45266;48.756;9.246;2022-12-07T05:30:47;12.33;;;7.67;;
55647;SDS011;45266;48.756;9.246;2022-12-07T05:31:48;9.90;;;6.90;;
55647;SDS011;45266;48.756;9.246;2022-12-07T05:32:50;11.47;;;6.63;;
55647;SDS011;45266;48.756;9.246;2022-12-07T05:33:52;9.97;;;7.03;;
55647;SDS011;45266;48.756;9.246;2022-12-07T05:34:54;11.73;;;6.40;;
55647;SDS011;45266;48.756;9.246;2022-12-07T05:35:56;9.87;;;6.63;;
55647;SDS011;45266;48.756;9.246;2022-12-07T05:36:58;9.57;;;7.03;;
55647;SDS011;45266;48.756;9.246;2022-12-07T05:38:00;9.63;;;6.90;;
55647;SDS011;45266;48.756;9.246;2022-12-07T05:39:02;10.00;;;6.77;;
55647;SDS011;45266;48.756;9.246;2022-12-07T05:40:04;10.77;;;6.80;;
55647;SDS011;45266;48.756;9.246;2022-12-07T05:41:07;8.00;;;6.40;;
55647;SDS011;45266;48.756;9.246;2022-12-07T05:42:29;9.07;;;6.73;;
55647;SDS011;45266;48.756;9.246;2022-12-07T05:43:31;11.30;;;7.80;;
55647;SDS011;45266;48.756;9.246;2022-12-07T05:44:34;9.97;;;6.60;;
55647;SDS011;45266;48.756;9.246;2022-12-07T05:45:35;10.47;;;6.73;;
55647;SDS011;45266;48.756;9.246;2022-12-07T05:46:37;10.17;;;6.80;;
55647;SDS011;45266;48.756;9.246;2022-12-07T05:47:39;9.13;;;6.10;;
55647;SDS011;45266;48.756;9.246;2022-12-07T05:48:41;12.43;;;6.63;;
55647;SDS011;45266;48.756;9.246;2022-12-07T05:49:42;9.87;;;6.33;;
55647;SDS011;45266;48.756;9.246;2022-12-07T05:50:47;9.47;;;6.77;;
55647;SDS011;45266;48.756;9.246;2022-12-07T05:51:49;8.73;;;5.40;;
55647;SDS011;45266;48.756;9.246;2022-12-07T05:52:51;9.23;;;6.30;;
55647;SDS011;45266;48.756;9.246;2022-12-07T05:53:52;7.63;;;5.60;;
55647;SDS011;45266;48.756;9.246;2022-12-07T05:54:54;6.73;;;5.37;;
55647;SDS011;45266;48.756;9.246;2022-12-07T05:55:56;7.73;;;5.60;;
55647;SDS011;45266;48.756;9.246;2022-12-07T05:56:57;9.40;;;5.87;;
55647;SDS011;45266;48.756;9.246;2022-12-07T05:57:59;8.00;;;5.73;;
55647;SDS011;45266;48.756;9.246;2022-12-07T05:59:20;9.33;;;5.50;;
55647;SDS011;45266;48.756;9.246;2022-12-07T06:00:24;9.80;;;6.07;;
55647;SDS011;45266;48.756;9.246;2022-12-07T06:01:26;9.30;;;5.23;;
55647;SDS011;45266;48.756;9.246;2022-12-07T06:02:28;8.97;;;5.83;;
55647;SDS011;45266;48.756;9.246;2022-12-07T06:03:29;7.40;;;5.70;;
55647;SDS011;45266;48.756;9.246;2022-12-07T06:04:33;7.57;;;5.50;;
55647;SDS011;45266;48.756;9.246;2022-12-07T06:05:39;9.33;;;6.10;;
55647;SDS011;45266;48.756;9.246;2022-12-07T06:06:41;8.03;;;5.20;;
55647;SDS011;45266;48.756;9.246;2022-12-07T06:07:43;9.00;;;6.63;;
55647;SDS011;45266;48.756;9.246;2022-12-07T06:08:45;9.33;;;5.80;;
55647;SDS011;45266;48.756;9.246;2022-12-07T06:09:46;9.60;;;5.97;;
55647;SDS011;45266;48.756;9.246;2022-12-07T06:10:48;10.13;;;6.47;;
55647;SDS011;45266;48.756;9.246;2022-12-07T06:12:10;11.20;;;6.67;;
55647;SDS011;45266;48.756;9.246;2022-12-07T06:13:31;13.50;;;9.07;;
55647;SDS011;45266;48.756;9.246;2022-12-07T06:14:33;16.13;;;10.57;;
55647;SDS011;45266;48.756;9.246;2022-12-07T06:15:35;14.20;;;9.70;;
55647;SDS011;45266;48.756;9.246;2022-12-07T06:16:37;14.07;;;8.20;;
55647;SDS011;45266;48.756;9.246;2022-12-07T06:17:39;10.53;;;7.40;;
55647;SDS011;45266;48.756;9.246;2022-12-07T06:18:41;11.00;;;7.33;;
55647;SDS011;45266;48.756;9.246;2022-12-07T06:19:43;11.73;;;6.93;;
55647;SDS011;45266;48.756;9.246;2022-12-07T06:20:45;11.87;;;6.90;;
55647;SDS011;45266;48.756;9.246;2022-12-07T06:21:47;10.97;;;7.50;;
55647;SDS011;45266;48.756;9.246;2022-12-07T06:22:49;12.13;;;7.10;;
55647;SDS011;45266;48.756;9.246;2022-12-07T06:23:51;11.53;;;7.93;;
55647;SDS011;45266;48.756;9.246;2022-12-07T06:24:53;12.20;;;7.57;;
55647;SDS011;45266;48.756;9.246;2022-12-07T06:25:55;10.97;;;7.00;;
55647;SDS011;45266;48.756;9.246;2022-12-07T06:26:56;9.13;;;6.43;;
55647;SDS011;45266;48.756;9.246;2022-12-07T06:27:58;10.53;;;6.57;;
55647;SDS011;45266;48.756;9.246;2022-12-07T06:29:00;9.37;;;7.23;;
55647;SDS011;45266;48.756;9.246;2022-12-07T06:30:02;12.00;;;7.80;;
55647;SDS011;45266;48.756;9.246;2022-12-07T06:31:07;12.50;;;8.67;;
55647;SDS011;45266;48.756;9.246;2022-12-07T06:32:14;36.50;;;24.37;;
55647;SDS011;45266;48.756;9.246;2022-12-07T06:33:16;20.50;;;13.77;;
55647;SDS011;45266;48.756;9.246;2022-12-07T06:34:18;18.77;;;13.07;;
55647;SDS011;45266;48.756;9.246;2022-12-07T06:35:23;22.93;;;15.00;;
55647;SDS011;45266;48.756;9.246;2022-12-07T06:36:25;23.70;;;16.53;;
55647;SDS011;45266;48.756;9.246;2022-12-07T06:37:27;15.57;;;10.80;;
55647;SDS011;45266;48.756;9.246;2022-12-07T06:38:29;15.37;;;11.03;;
55647;SDS011;45266;48.756;9.246;2022-12-07T06:39:31;12.77;;;8.13;;
55647;SDS011;45266;48.756;9.246;2022-12-07T06:40:33;15.93;;;9.30;;
55647;SDS011;45266;48.756;9.246;2022-12-07T06:41:36;14.53;;;7.50;;
55647;SDS011;45266;48.756;9.246;2022-12-07T06:42:38;10.57;;;7.60;;
55647;SDS011;45266;48.756;9.246;2022-12-07T06:43:40;11.80;;;6.47;;
55647;SDS011;45266;48.756;9.246;2022-12-07T06:44:43;13.27;;;6.77;;
55647;SDS011;45266;48.756;9.246;2022-12-07T06:45:44;10.00;;;6.90;;
55647;SDS011;45266;48.756;9.246;2022-12-07T06:46:47;10.70;;;6.97;;
55647;SDS011;45266;48.756;9.246;2022-12-07T06:47:49;11.43;;;6.97;;
55647;SDS011;45266;48.756;9.246;2022-12-07T06:48:51;9.17;;;6.73;;
55647;SDS011;45266;48.756;9.246;2022-12-07T06:49:53;9.60;;;7.40;;
55647;SDS011;45266;48.756;9.246;2022-12-07T06:50:54;11.00;;;7.73;;
55647;SDS011;45266;48.756;9.246;2022-12-07T06:51:56;12.20;;;8.53;;
55647;SDS011;45266;48.756;9.246;2022-12-07T06:52:58;10.63;;;8.20;;